Time;durP1;ratioP1;P1;durP2;ratioP2;P2;SDS_P1;SDS_P2;PMS_P1;PMS_P2;Temp;Humidity;BMP_temperature;BMP_pressure;BME280_temperature;BME280_humidity;BME280_pressure;Samples;Min_cycle;Max_cycle;Signal;HPM_P1;HPM_P2
2022/05/26 00:04:08;;;;;;;10.10;5.53;;;;;;;12.40;71.77;99139.41;10409355;28;20073;-74
2022/05/26 00:09:10;;;;;;;12.10;5.60;;;;;;;12.42;71.90;99162.13;10403820;28;20054;-72
2022/05/26 00:14:11;;;;;;;11.07;5.50;;;;;;;12.44;72.21;99164.75;10407262;28;20044;-73
2022/05/26 00:19:16;;;;;;;11.77;5.38;;;;;;;12.46;72.27;99184.84;10409593;28;20045;-73
2022/05/26 00:24:19;;;;;;;12.43;5.78;;;;;;;12.49;72.67;99195.28;10401970;28;20112;-73
2022/05/26 00:29:21;;;;;;;16.33;6.32;;;;;;;12.51;72.79;99211.84;10405078;28;20041;-73
2022/05/26 00:34:22;;;;;;;13.82;6.78;;;;;;;12.56;72.86;99232.78;10403744;28;20038;-72
2022/05/26 00:39:25;;;;;;;14.10;6.53;;;;;;;12.59;73.06;99255.50;10404672;28;20053;-72
2022/05/26 00:44:28;;;;;;;16.08;6.88;;;;;;;12.60;73.39;99266.00;10399885;28;20037;-73
2022/05/26 00:49:53;;;;;;;13.93;6.50;;;;;;;12.62;73.52;99276.47;10401814;28;20138;-74
2022/05/26 00:55:01;;;;;;;17.02;6.78;;;;;;;12.61;73.59;99274.72;10395180;28;20137;-73
2022/05/26 01:00:15;;;;;;;11.98;6.80;;;;;;;12.58;73.88;99265.16;10438786;28;20051;-74
2022/05/26 01:05:25;;;;;;;15.43;7.63;;;;;;;12.57;73.99;99267.81;10444439;28;20408;-74
2022/05/26 01:10:27;;;;;;;11.05;6.45;;;;;;;12.58;74.33;99269.53;10443735;28;20087;-74
2022/05/26 01:15:35;;;;;;;13.85;7.00;;;;;;;12.60;74.40;99288.75;10444925;28;20051;-73
2022/05/26 01:20:36;;;;;;;16.73;7.15;;;;;;;12.57;74.61;99279.16;10442910;28;20390;-74
2022/05/26 01:26:09;;;;;;;14.45;7.78;;;;;;;12.59;74.80;99292.28;10445048;28;20094;-74
2022/05/26 01:31:37;;;;;;;15.90;7.80;;;;;;;12.61;75.08;99308.84;10430675;28;20057;-73
2022/05/26 01:37:08;;;;;;;14.63;7.50;;;;;;;12.54;75.17;99280.06;10433137;28;20064;-75
2022/05/26 01:42:36;;;;;;;15.07;8.75;;;;;;;12.50;75.41;99267.88;10441876;28;20856;-73
2022/05/26 01:48:16;;;;;;;14.48;7.32;;;;;;;12.49;75.51;99260.03;10438001;28;20045;-74
2022/05/26 01:53:41;;;;;;;17.15;7.47;;;;;;;12.45;75.67;99253.09;10434638;28;20047;-74
2022/05/26 01:58:48;;;;;;;16.55;8.00;;;;;;;12.45;75.97;99272.34;10428978;28;20044;-73
2022/05/26 02:03:52;;;;;;;15.57;7.75;;;;;;;12.44;76.07;99267.97;10439264;28;20536;-74
2022/05/26 02:09:06;;;;;;;13.48;8.00;;;;;;;12.41;76.26;99257.53;10440214;28;20045;-75
2022/05/26 02:14:27;;;;;;;19.50;7.53;;;;;;;12.35;76.44;99240.09;10438596;28;20045;-73
2022/05/26 02:19:37;;;;;;;17.08;7.63;;;;;;;12.37;76.63;99245.34;10432133;28;20045;-74
2022/05/26 02:25:02;;;;;;;11.52;6.57;;;;;;;12.36;76.61;99248.84;10440947;28;20076;-73
2022/05/26 02:30:06;;;;;;;10.57;5.80;;;;;;;12.40;76.97;99263.69;10446389;28;20057;-73
2022/05/26 02:35:15;;;;;;;8.35;5.43;;;;;;;12.37;77.07;99256.72;10441190;28;20425;-74
2022/05/26 02:40:16;;;;;;;10.47;5.60;;;;;;;12.36;77.22;99267.22;10441062;28;20053;-74
2022/05/26 02:45:54;;;;;;;11.90;5.88;;;;;;;12.35;77.37;99262.84;10440068;28;20052;-73
2022/05/26 02:51:23;;;;;;;11.32;5.35;;;;;;;12.32;77.45;99258.50;10412356;28;20148;-72
2022/05/26 02:56:51;;;;;;;10.38;5.20;;;;;;;12.29;77.74;99244.59;10431153;28;20059;-74
2022/05/26 03:02:37;;;;;;;12.77;5.55;;;;;;;12.24;77.93;99233.28;10427201;28;20477;-75
2022/05/26 03:07:42;;;;;;;12.23;5.28;;;;;;;12.23;77.97;99231.56;10425452;28;20044;-73
2022/05/26 03:12:44;;;;;;;15.60;6.85;;;;;;;12.20;78.26;99228.09;10439551;28;20045;-73
2022/05/26 03:17:49;;;;;;;10.20;5.60;;;;;;;12.18;78.28;99221.97;10447912;28;20076;-74
2022/05/26 03:22:51;;;;;;;11.77;6.00;;;;;;;12.17;78.42;99214.13;10447099;28;20044;-74
2022/05/26 03:27:52;;;;;;;16.27;6.68;;;;;;;12.23;78.67;99247.28;10447082;28;20053;-74
2022/05/26 03:32:54;;;;;;;16.48;7.68;;;;;;;12.23;78.91;99253.41;10446759;28;20129;-73
2022/05/26 03:43:16;;;;;;;18.25;7.90;;;;;;;12.30;79.13;99298.81;10447347;28;20564;-73
2022/05/26 03:48:18;;;;;;;14.38;7.65;;;;;;;12.35;79.30;99310.09;10447449;28;20079;-72
2022/05/26 03:53:19;;;;;;;16.27;7.95;;;;;;;12.29;79.29;99295.31;10439645;28;20118;-74
2022/05/26 03:58:21;;;;;;;16.83;8.02;;;;;;;12.30;79.58;99311.94;10446422;28;20728;-74
2022/05/26 04:03:23;;;;;;;18.35;8.32;;;;;;;12.32;79.74;99312.78;10445462;28;20500;-73
2022/05/26 04:08:24;;;;;;;23.30;8.82;;;;;;;12.32;79.84;99316.25;10445655;28;20413;-74
2022/05/26 04:13:30;;;;;;;21.80;9.20;;;;;;;12.36;80.20;99340.72;10445586;28;20123;-73
2022/05/26 04:18:32;;;;;;;19.02;9.57;;;;;;;12.42;80.17;99364.25;10446045;28;20132;-74
2022/05/26 04:23:34;;;;;;;22.65;8.88;;;;;;;12.50;80.29;99399.16;10444773;28;20039;-74
2022/05/26 04:28:36;;;;;;;23.05;9.75;;;;;;;12.61;80.52;99442.78;10444584;28;20496;-73
2022/05/26 04:33:38;;;;;;;24.80;9.88;;;;;;;12.65;80.55;99460.25;10444792;28;20039;-74
2022/05/26 04:38:39;;;;;;;24.48;11.30;;;;;;;12.71;80.67;99503.03;10444995;28;20047;-74
2022/05/26 04:43:41;;;;;;;32.13;10.95;;;;;;;12.73;80.88;99506.53;10444119;28;20045;-75
2022/05/26 04:48:43;;;;;;;25.52;10.90;;;;;;;12.80;80.99;99548.50;10445494;28;20148;-74
2022/05/26 04:53:45;;;;;;;27.50;12.50;;;;;;;12.90;80.92;99590.38;10444256;28;20106;-75
2022/05/26 04:58:47;;;;;;;29.70;11.82;;;;;;;13.01;81.34;99640.19;10445127;28;20049;-75
2022/05/26 05:03:49;;;;;;;27.90;11.50;;;;;;;13.15;81.50;99702.25;10444568;28;20044;-77
2022/05/26 05:08:51;;;;;;;27.05;10.55;;;;;;;13.24;81.44;99750.34;10437606;28;20102;-72
2022/05/26 05:13:53;;;;;;;25.23;9.48;;;;;;;13.42;81.92;99822.03;10441148;28;20048;-75
2022/05/26 05:18:56;;;;;;;29.48;10.70;;;;;;;13.59;81.83;99901.66;10442772;28;20049;-76
2022/05/26 05:24:05;;;;;;;26.48;8.70;;;;;;;13.59;81.98;99908.69;10433376;28;20654;-75
2022/05/26 05:29:12;;;;;;;26.83;8.73;;;;;;;13.73;81.97;99967.28;10435613;28;20048;-74
2022/05/26 05:34:20;;;;;;;23.80;7.57;;;;;;;13.86;82.28;100022.47;10440719;28;20037;-75
2022/05/26 05:39:23;;;;;;;20.42;7.10;;;;;;;14.05;82.42;100104.75;10428862;28;20554;-74
2022/05/26 05:44:26;;;;;;;22.70;6.20;;;;;;;14.17;82.49;100159.94;10415885;28;20041;-74
2022/05/26 05:49:31;;;;;;;21.58;6.50;;;;;;;14.23;82.58;100186.25;10435247;28;20052;-74
2022/05/26 05:54:32;;;;;;;28.60;7.80;;;;;;;14.33;82.63;100237.06;10440187;28;20489;-76
2022/05/26 05:59:34;;;;;;;19.35;6.43;;;;;;;14.40;82.84;100257.22;10439319;28;20048;-76
2022/05/26 06:04:42;;;;;;;15.63;5.18;;;;;;;14.40;82.90;100264.25;10440353;28;20041;-73
2022/05/26 06:09:44;;;;;;;16.90;4.53;;;;;;;14.44;82.88;100281.75;10439170;28;20043;-73
2022/05/26 06:14:49;;;;;;;22.20;4.00;;;;;;;14.52;83.04;100324.75;10399773;28;20052;-75
2022/05/26 06:20:09;;;;;;;18.75;3.97;;;;;;;14.78;83.11;100434.41;10403922;28;20047;-75
2022/05/26 06:25:19;;;;;;;16.00;3.33;;;;;;;15.06;82.99;100552.88;10433377;28;20064;-75
2022/05/26 06:30:26;;;;;;;12.55;2.90;;;;;;;15.42;83.06;100718.00;10401639;28;20033;-73
2022/05/26 06:40:48;;;;;;;;;;;;;;;15.68;83.08;100826.09;10432710;28;20451;-76
2022/05/26 06:45:49;;;;;;;11.10;2.33;;;;;;;15.67;83.21;100827.00;10439008;28;19924;-75
2022/05/26 06:50:51;;;;;;;12.77;2.25;;;;;;;16.05;83.22;100991.53;10427215;28;20040;-79
2022/05/26 06:55:53;;;;;;;9.80;2.17;;;;;;;16.49;83.23;101183.44;10435751;28;20037;-75
2022/05/26 07:00:54;;;;;;;11.50;1.98;;;;;;;16.64;83.15;101248.63;10392817;28;20052;-75
2022/05/26 07:05:56;;;;;;;10.85;1.55;;;;;;;16.66;83.06;101249.50;10403461;28;20060;-76
2022/05/26 07:11:00;;;;;;;10.93;1.40;;;;;;;16.57;82.70;101201.94;10365179;28;20037;-76
2022/05/26 07:16:02;;;;;;;7.40;1.40;;;;;;;16.57;82.70;101201.94;10362356;28;20041;-77
2022/05/26 07:21:06;;;;;;;9.13;1.83;;;;;;;17.11;82.27;101440.88;10387448;28;20046;-79
2022/05/26 07:26:11;;;;;;;6.20;1.35;;;;;;;17.63;82.57;101661.50;10383750;28;20128;-80
2022/05/26 07:31:13;;;;;;;8.05;2.00;;;;;;;17.92;81.99;101793.16;10375133;28;20120;-78
2022/05/26 07:41:38;;;;;;;7.35;1.50;;;;;;;17.63;81.70;101650.94;10411304;28;20061;-76
2022/05/26 07:46:40;;;;;;;7.95;1.27;;;;;;;18.35;81.46;101962.94;10425277;28;20045;-76
2022/05/26 07:51:41;;;;;;;8.35;1.10;;;;;;;18.68;81.44;102101.88;10408727;28;20120;-73
2022/05/26 07:56:43;;;;;;;6.20;1.00;;;;;;;18.51;80.82;102027.50;10413416;28;20050;-75
2022/05/26 08:01:45;;;;;;;5.88;1.50;;;;;;;18.60;80.74;102047.88;10427726;28;20049;-74
2022/05/26 08:06:48;;;;;;;11.52;1.60;;;;;;;19.03;80.37;102231.19;10437509;28;20469;-73
2022/05/26 08:11:49;;;;;;;7.00;1.13;;;;;;;18.26;80.11;101883.38;10436993;28;20051;-73
2022/05/26 08:16:51;;;;;;;6.93;1.25;;;;;;;18.60;79.41;102018.69;10439509;28;20055;-75
2022/05/26 08:21:52;;;;;;;7.93;1.15;;;;;;;17.91;79.37;101719.84;10434060;28;20069;-76
2022/05/26 08:26:56;;;;;;;10.93;1.63;;;;;;;18.01;78.67;101740.19;10436386;28;20044;-76
2022/05/26 08:31:57;;;;;;;6.38;1.13;;;;;;;18.11;78.66;101792.34;10443127;28;20123;-75
2022/05/26 08:36:59;;;;;;;4.82;1.00;;;;;;;17.73;78.37;101622.66;10437584;28;20052;-76
2022/05/26 08:42:00;;;;;;;6.60;1.20;;;;;;;17.28;77.76;101411.75;10443916;28;20128;-75
2022/05/26 08:47:21;;;;;;;7.80;1.05;;;;;;;17.28;77.57;101402.94;10443519;28;20099;-75
2022/05/26 08:52:30;;;;;;;4.80;1.00;;;;;;;17.17;77.29;101349.13;10431157;28;20037;-74
2022/05/26 08:57:38;;;;;;;;;;;;;;;17.51;76.79;101484.09;10442585;28;20111;-75
2022/05/26 09:02:40;;;;;;;10.48;1.40;;;;;;;17.65;76.75;101544.13;10432466;28;20293;-75
2022/05/26 09:13:26;;;;;;;5.35;0.93;;;;;;;17.45;76.22;101443.50;10437828;28;20408;-75
2022/05/26 09:18:28;;;;;;;4.15;0.98;;;;;;;17.03;75.54;101252.13;10441760;28;20048;-75
2022/05/26 09:23:29;;;;;;;9.25;0.98;;;;;;;16.92;75.59;101201.03;10441897;28;20067;-75
2022/05/26 09:28:36;;;;;;;5.03;1.20;;;;;;;17.17;75.39;101309.44;10422621;28;20148;-75
2022/05/26 09:33:38;;;;;;;5.75;0.95;;;;;;;17.90;74.97;101612.13;10440929;28;20123;-74
2022/05/26 09:38:40;;;;;;;6.95;1.20;;;;;;;18.37;74.94;101812.69;10441630;28;20548;-74
2022/05/26 09:43:49;;;;;;;2.78;0.75;;;;;;;18.02;74.58;101659.81;10440529;28;20536;-75
2022/05/26 09:48:56;;;;;;;6.72;0.98;;;;;;;18.24;74.15;101736.66;10440765;28;20103;-76
2022/05/26 09:53:58;;;;;;;4.82;0.98;;;;;;;18.49;73.94;101844.50;10427828;28;20043;-74
2022/05/26 09:59:24;;;;;;;6.53;1.02;;;;;;;18.63;73.94;101905.56;10440720;28;20790;-77
2022/05/26 10:04:51;;;;;;;7.20;0.82;;;;;;;19.34;73.44;102204.78;10439650;28;20048;-76
2022/05/26 10:10:15;;;;;;;4.55;0.90;;;;;;;19.38;73.67;102220.72;10440217;28;20067;-74
2022/05/26 10:15:35;;;;;;;3.03;0.80;;;;;;;18.89;73.27;101992.28;10385574;28;20783;-75
2022/05/26 10:20:50;;;;;;;4.68;1.48;;;;;;;18.60;72.76;101863.13;10389815;28;20081;-74
2022/05/26 10:26:18;;;;;;;7.70;1.02;;;;;;;18.57;72.52;101843.63;10398615;28;20045;-73
2022/05/26 10:31:29;;;;;;;6.32;1.05;;;;;;;19.13;72.51;102079.03;10397224;28;20148;-75
2022/05/26 10:36:58;;;;;;;5.75;0.75;;;;;;;18.95;72.03;101991.44;10398320;28;20136;-76
2022/05/26 10:42:07;;;;;;;4.45;0.98;;;;;;;19.29;71.65;102132.16;10391825;28;20880;-74
2022/05/26 10:47:13;;;;;;;4.53;0.93;;;;;;;19.46;71.44;102190.66;10398445;28;20191;-74
2022/05/26 10:52:21;;;;;;;4.35;0.93;;;;;;;19.83;71.15;102345.78;10382312;28;20408;-75
2022/05/26 10:57:35;;;;;;;4.88;1.00;;;;;;;19.40;70.62;102160.53;10393670;28;20425;-76
2022/05/26 11:03:04;;;;;;;3.63;0.68;;;;;;;18.73;70.58;101862.25;10390591;28;20048;-73
2022/05/26 11:08:31;;;;;;;4.82;1.00;;;;;;;18.01;69.80;101546.75;10389076;28;20525;-74
2022/05/26 11:13:55;;;;;;;6.00;1.00;;;;;;;18.23;69.81;101626.25;10385813;28;20541;-76
2022/05/26 11:19:13;;;;;;;6.40;1.10;;;;;;;18.12;69.43;101574.13;10396507;28;20053;-74
2022/05/26 11:24:15;;;;;;;4.90;1.10;;;;;;;17.92;69.14;101483.19;10384180;28;20069;-74
2022/05/26 11:29:22;;;;;;;5.55;1.08;;;;;;;17.94;69.18;101486.69;10396779;28;20059;-73
2022/05/26 11:39:46;;;;;;;6.22;1.42;;;;;;;17.78;68.28;101409.91;10404061;28;20045;-76
2022/05/26 11:45:07;;;;;;;19.58;10.20;;;;;;;17.64;68.19;101348.16;10404218;28;20053;-75
2022/05/26 11:50:29;;;;;;;6.00;2.20;;;;;;;18.85;68.35;101855.16;10438568;28;20149;-75
2022/05/26 11:55:45;;;;;;;13.95;3.22;;;;;;;18.95;68.20;101891.44;10439140;28;20584;-75
2022/05/26 12:00:48;;;;;;;12.15;5.80;;;;;;;18.71;67.73;101783.53;10442970;28;20120;-75
2022/05/26 12:06:04;;;;;;;7.18;1.42;;;;;;;18.78;67.79;101808.28;10430699;28;20045;-74
2022/05/26 12:11:09;;;;;;;7.40;2.20;;;;;;;18.32;67.61;101611.19;10430984;28;20445;-75
2022/05/26 12:16:19;;;;;;;34.83;23.73;;;;;;;18.61;67.07;101732.25;10440053;28;20055;-75
2022/05/26 12:21:27;;;;;;;6.78;2.60;;;;;;;18.49;66.97;101671.25;10443915;28;20124;-75
2022/05/26 12:26:50;;;;;;;13.57;4.80;;;;;;;18.13;66.91;101512.25;10443772;28;20041;-75
2022/05/26 12:32:15;;;;;;;4.47;1.02;;;;;;;18.19;66.54;101538.78;10437847;28;20063;-75
2022/05/26 12:37:42;;;;;;;10.90;3.63;;;;;;;19.36;66.49;102039.22;10431387;28;20047;-75
2022/05/26 12:42:55;;;;;;;4.80;0.95;;;;;;;19.24;66.25;101973.72;10442454;28;20053;-74
2022/05/26 12:48:30;;;;;;;4.38;0.93;;;;;;;18.55;66.45;101674.81;10430993;28;20049;-73
2022/05/26 12:53:33;;;;;;;5.80;1.13;;;;;;;18.57;66.14;101673.91;10442260;28;20063;-72
2022/05/26 12:58:38;;;;;;;5.28;1.00;;;;;;;18.86;65.77;101798.59;10429032;28;20053;-75
2022/05/26 13:03:46;;;;;;;4.32;0.95;;;;;;;18.54;65.77;101657.13;10441833;28;20041;-74
2022/05/26 13:08:59;;;;;;;3.73;0.90;;;;;;;18.22;65.51;101524.63;10442635;28;20099;-74
2022/05/26 13:14:07;;;;;;;9.20;1.10;;;;;;;18.35;65.25;101563.47;10440973;28;20128;-74
2022/05/26 13:19:18;;;;;;;3.10;0.88;;;;;;;18.35;65.47;101562.59;10429719;28;20049;-75
2022/05/26 13:24:29;;;;;;;5.03;1.17;;;;;;;17.95;65.31;101401.91;10441352;28;20049;-75
2022/05/26 13:29:34;;;;;;;6.15;1.17;;;;;;;17.80;64.90;101331.28;10442065;28;20055;-74
2022/05/26 13:34:51;;;;;;;3.58;1.13;;;;;;;17.79;65.09;101328.66;10442101;28;20033;-76
2022/05/26 13:40:13;;;;;;;6.40;1.20;;;;;;;17.83;64.71;101341.91;10432771;28;20049;-74
2022/05/26 13:45:24;;;;;;;6.57;3.65;;;;;;;17.87;64.65;101350.72;10441176;28;20041;-73
2022/05/26 13:50:29;;;;;;;7.47;2.83;;;;;;;17.95;64.80;101387.78;10431622;28;20485;-74
2022/05/26 13:55:31;;;;;;;7.72;1.40;;;;;;;18.13;64.48;101459.25;10442350;28;20037;-74
2022/05/26 14:00:36;;;;;;;3.70;0.98;;;;;;;18.17;64.49;101473.41;10435886;28;20152;-75
2022/05/26 14:05:56;;;;;;;4.07;1.17;;;;;;;18.00;64.68;101396.63;10443486;28;20044;-76
2022/05/26 14:10:58;;;;;;;10.57;1.50;;;;;;;17.74;64.30;101291.59;10433541;28;20512;-74
2022/05/26 14:16:04;;;;;;;5.80;1.23;;;;;;;17.70;64.07;101279.28;10437586;28;20485;-74
2022/05/26 14:21:11;;;;;;;3.78;1.33;;;;;;;17.67;64.34;101264.28;10441643;28;20041;-75
2022/05/26 14:26:33;;;;;;;5.40;1.15;;;;;;;17.63;64.15;101248.41;10433563;28;20063;-75
2022/05/26 14:31:45;;;;;;;;;;;;;;;;;;;;;
2022/05/26 14:36:51;;;;;;;3.47;0.93;;;;;;;17.54;63.90;101199.03;10414027;28;20069;-72
2022/05/26 14:41:55;;;;;;;17.77;13.32;;;;;;;17.54;64.04;101198.16;10434576;28;20056;-71
2022/05/26 14:46:57;;;;;;;7.90;2.95;;;;;;;17.55;63.83;101205.19;10422434;28;20041;-73
2022/05/26 14:51:59;;;;;;;6.85;1.73;;;;;;;17.47;63.80;101171.72;10387696;28;20045;-71
2022/05/26 14:57:02;;;;;;;16.52;8.77;;;;;;;17.51;64.08;101188.44;10413369;28;20121;-76
2022/05/26 15:02:03;;;;;;;6.80;1.45;;;;;;;17.62;63.80;101233.41;10435963;28;20047;-73
2022/05/26 15:07:06;;;;;;;90.20;55.17;;;;;;;17.60;63.84;101220.16;10431880;28;20094;-73
2022/05/26 15:12:13;;;;;;;71.15;47.08;;;;;;;17.67;63.92;101242.22;10437774;28;20055;-78
2022/05/26 15:17:18;;;;;;;157.10;104.30;;;;;;;17.72;63.73;101280.13;10429885;28;20071;-75
2022/05/26 15:22:28;;;;;;;24.10;14.23;;;;;;;17.79;64.04;101295.13;10460683;28;20060;-75
2022/05/26 15:27:32;;;;;;;91.90;63.95;;;;;;;17.67;64.04;101247.50;10451736;28;20053;-81
2022/05/26 15:32:37;;;;;;;161.07;99.38;;;;;;;17.62;63.61;101233.41;10445965;28;20643;-76
2022/05/26 15:37:40;;;;;;;13.18;6.22;;;;;;;17.53;63.52;101188.44;10444907;28;20067;-74
2022/05/26 15:42:43;;;;;;;7.80;1.23;;;;;;;17.56;63.44;101202.53;10447413;28;20052;-78
2022/05/26 15:47:45;;;;;;;5.70;1.63;;;;;;;17.56;63.77;101202.53;10440434;28;20049;-77
2022/05/26 15:52:47;;;;;;;11.75;1.70;;;;;;;17.59;63.53;101207.81;10430508;28;20290;-77
2022/05/26 15:57:51;;;;;;;5.70;1.63;;;;;;;17.67;63.58;101242.22;10428246;28;20138;-77
2022/05/26 16:02:54;;;;;;;6.90;1.70;;;;;;;17.63;63.35;101227.22;10427697;28;20501;-77
2022/05/26 16:07:56;;;;;;;9.32;1.50;;;;;;;17.61;63.76;101215.75;10431930;28;20136;-76
2022/05/26 16:12:58;;;;;;;7.45;1.70;;;;;;;17.58;63.36;101205.16;10394006;28;20056;-76
2022/05/26 16:18:05;;;;;;;11.55;2.20;;;;;;;17.54;63.44;101179.63;10427763;28;20044;-76
2022/05/26 16:23:10;;;;;;;8.40;1.67;;;;;;;17.53;63.31;101181.38;10381526;28;20039;-72
2022/05/26 16:28:13;;;;;;;7.88;1.50;;;;;;;17.51;63.56;101171.69;10423218;28;20044;-71
2022/05/26 16:33:15;;;;;;;7.78;1.17;;;;;;;17.44;63.43;101142.63;10435538;28;20115;-72
2022/05/26 16:38:19;;;;;;;4.70;1.30;;;;;;;17.39;63.43;101120.56;10421259;28;20397;-78
2022/05/26 16:43:24;;;;;;;3.88;1.00;;;;;;;17.25;63.30;101061.53;10433273;28;20057;-73
2022/05/26 16:48:31;;;;;;;8.68;1.63;;;;;;;17.22;63.10;101049.22;10420428;28;20049;-80
2022/05/26 16:53:36;;;;;;;9.25;1.73;;;;;;;17.13;63.43;101015.75;10427735;28;20068;-78
2022/05/26 16:58:39;;;;;;;9.48;1.90;;;;;;;17.01;62.98;100955.00;10448312;28;20040;-77
2022/05/26 17:03:47;;;;;;;11.25;1.73;;;;;;;16.91;63.09;100910.97;10436260;28;20142;-75
2022/05/26 17:08:49;;;;;;;268.02;165.93;;;;;;;16.83;62.99;100891.59;10440541;28;20122;-74
2022/05/26 17:24:35;;;;;;;9.98;3.75;;;;;;;16.53;63.02;100761.38;10437459;28;20248;-78
2022/05/26 17:29:40;;;;;;;7.40;1.80;;;;;;;16.48;63.19;100748.22;10419613;28;20044;-75
2022/05/26 17:34:43;;;;;;;25.23;11.52;;;;;;;16.49;63.11;100754.41;10415929;28;20049;-80
2022/05/26 17:39:45;;;;;;;12.32;3.08;;;;;;;16.48;62.99;100744.72;10436498;28;20081;-78
2022/05/26 17:44:52;;;;;;;12.27;3.60;;;;;;;16.35;62.94;100694.59;10452727;28;20069;-79
2022/05/26 17:49:54;;;;;;;10.63;3.40;;;;;;;16.25;63.07;100650.66;10461424;28;20102;-78
2022/05/26 17:55:01;;;;;;;12.40;2.00;;;;;;;16.14;63.24;100610.22;10433972;28;20848;-77
2022/05/26 18:05:25;;;;;;;9.68;2.17;;;;;;;15.92;63.15;100523.28;10368571;28;20069;-77
2022/05/26 18:10:27;;;;;;;9.95;2.28;;;;;;;15.78;63.23;100459.16;10379013;28;20854;-78
2022/05/26 18:15:42;;;;;;;12.95;2.35;;;;;;;15.77;63.12;100462.69;10385667;28;20034;-81
2022/05/26 18:20:43;;;;;;;6.97;1.48;;;;;;;15.69;63.21;100426.66;10380222;28;20049;-80
2022/05/26 18:25:46;;;;;;;8.45;1.65;;;;;;;15.58;63.53;100383.66;10411110;28;20592;-80
2022/05/26 18:30:52;;;;;;;7.90;1.50;;;;;;;15.52;63.40;100367.88;10368176;28;20116;-79
2022/05/26 18:36:21;;;;;;;6.05;1.50;;;;;;;15.41;63.30;100327.56;10387128;28;20038;-80
2022/05/26 18:41:22;;;;;;;5.82;1.23;;;;;;;15.35;63.29;100304.75;10391860;28;20425;-77
2022/05/26 18:46:24;;;;;;;4.68;1.50;;;;;;;15.34;63.41;100295.06;10395036;28;20057;-79
2022/05/26 18:51:28;;;;;;;9.57;1.70;;;;;;;15.26;63.58;100262.66;10394765;28;20069;-79
2022/05/26 18:56:32;;;;;;;4.18;1.40;;;;;;;15.26;63.68;100268.78;10393736;28;20072;-79
2022/05/26 19:01:34;;;;;;;5.50;1.40;;;;;;;15.27;63.76;100267.91;10388682;28;20046;-79
2022/05/26 19:06:36;;;;;;;8.57;1.70;;;;;;;15.24;63.71;100256.50;10387666;28;20088;-78
2022/05/26 19:11:40;;;;;;;6.28;1.75;;;;;;;15.21;63.84;100254.78;10374551;28;20543;-79
2022/05/26 19:16:43;;;;;;;8.45;1.80;;;;;;;15.16;63.79;100227.56;10372300;28;20045;-79
2022/05/26 19:21:45;;;;;;;8.48;2.10;;;;;;;15.17;63.97;100234.59;10382848;28;20129;-78
2022/05/26 19:26:49;;;;;;;8.65;1.60;;;;;;;15.13;63.79;100225.88;10405407;28;20057;-78
2022/05/26 19:31:57;;;;;;;9.50;1.63;;;;;;;15.11;64.00;100218.84;10396979;28;20192;-77
2022/05/26 19:36:58;;;;;;;8.63;1.67;;;;;;;15.07;64.16;100202.16;10395282;28;20347;-77
2022/05/26 19:42:02;;;;;;;6.88;1.48;;;;;;;15.10;64.28;100228.53;10413768;28;20148;-77
2022/05/26 19:47:07;;;;;;;6.40;2.08;;;;;;;14.93;64.40;100149.59;10387186;28;20480;-76
2022/05/26 19:52:08;;;;;;;7.78;1.98;;;;;;;14.64;64.33;100040.13;10388583;28;20050;-77
2022/05/26 19:57:10;;;;;;;12.02;2.80;;;;;;;14.46;64.58;99966.56;10387581;28;20135;-74
2022/05/26 20:02:12;;;;;;;8.05;2.10;;;;;;;14.33;64.54;99923.69;10401538;28;20051;-75
2022/05/26 20:07:16;;;;;;;10.82;2.55;;;;;;;14.22;64.60;99873.78;10384527;28;20068;-77
2022/05/26 20:12:18;;;;;;;11.68;2.90;;;;;;;14.07;64.60;99819.56;10394170;28;20140;-77
2022/05/26 20:17:20;;;;;;;9.30;2.88;;;;;;;13.88;65.03;99741.75;10390535;28;20076;-74
2022/05/26 20:22:22;;;;;;;13.20;4.00;;;;;;;13.61;65.16;99641.25;10396587;28;20132;-76
2022/05/26 20:27:25;;;;;;;9.27;4.00;;;;;;;13.47;65.29;99588.84;10391129;28;20041;-76
2022/05/26 20:32:26;;;;;;;8.02;3.20;;;;;;;13.38;65.31;99558.28;10396041;28;20045;-76
2022/05/26 20:37:28;;;;;;;9.35;3.90;;;;;;;13.36;65.49;99554.81;10396364;28;20156;-75
2022/05/26 20:42:29;;;;;;;9.63;3.55;;;;;;;13.39;65.77;99572.28;10403033;28;20049;-76
2022/05/26 20:47:33;;;;;;;12.10;3.70;;;;;;;13.41;65.96;99576.63;10397053;28;20050;-74
2022/05/26 20:52:34;;;;;;;9.07;3.42;;;;;;;13.45;66.25;99595.88;10404827;28;20113;-77
2022/05/26 20:57:37;;;;;;;10.90;3.30;;;;;;;13.48;66.40;99616.88;10413026;28;20051;-77
2022/05/26 21:02:40;;;;;;;7.88;4.10;;;;;;;13.50;66.49;99628.25;10378124;28;20049;-77
2022/05/26 21:07:45;;;;;;;9.05;3.88;;;;;;;13.45;66.87;99611.66;10404517;28;20051;-77
2022/05/26 21:12:47;;;;;;;11.88;4.20;;;;;;;13.43;67.16;99613.44;10405209;28;20050;-76
2022/05/26 21:17:49;;;;;;;10.85;3.63;;;;;;;13.40;67.41;99603.81;10394961;28;20236;-77
2022/05/26 21:22:53;;;;;;;9.70;3.65;;;;;;;13.41;67.61;99610.81;10392891;28;20103;-77
2022/05/26 21:27:55;;;;;;;9.57;3.97;;;;;;;13.41;67.86;99625.75;10429794;28;20400;-76
2022/05/26 21:32:56;;;;;;;13.18;4.57;;;;;;;13.41;68.06;99631.00;10430103;28;20083;-76
2022/05/26 21:37:58;;;;;;;8.82;4.43;;;;;;;13.48;68.33;99664.22;10441811;28;20477;-74
2022/05/26 21:43:00;;;;;;;12.27;4.78;;;;;;;13.48;68.56;99666.84;10415258;28;20048;-74
2022/05/26 21:48:01;;;;;;;12.13;4.85;;;;;;;13.46;68.84;99660.72;10414592;28;20056;-73
2022/05/26 21:53:04;;;;;;;11.48;5.15;;;;;;;13.41;69.02;99652.03;10435470;28;20047;-74
2022/05/26 21:58:06;;;;;;;9.77;5.18;;;;;;;13.37;69.37;99640.66;10419447;28;20045;-76
2022/05/26 22:03:07;;;;;;;16.20;5.78;;;;;;;13.36;69.68;99641.56;10412391;28;20051;-75
2022/05/26 22:13:29;;;;;;;12.43;5.30;;;;;;;13.46;70.20;99692.28;10413454;28;20089;-74
2022/05/26 22:18:30;;;;;;;14.95;6.03;;;;;;;13.46;70.26;99694.03;10417329;28;20041;-74
2022/05/26 22:23:32;;;;;;;11.63;5.68;;;;;;;13.49;70.67;99713.28;10411734;28;20112;-73
2022/05/26 22:28:33;;;;;;;13.48;5.65;;;;;;;13.46;70.93;99710.69;10398912;28;20064;-74
2022/05/26 22:33:36;;;;;;;16.95;6.40;;;;;;;13.48;71.17;99723.81;10412665;28;20504;-74
2022/05/26 22:38:37;;;;;;;16.30;6.47;;;;;;;13.47;71.49;99722.09;10414054;28;20046;-74
2022/05/26 22:43:40;;;;;;;16.75;6.53;;;;;;;13.52;71.67;99754.44;10431970;28;20048;-74
2022/05/26 22:48:42;;;;;;;15.60;6.43;;;;;;;13.52;72.03;99760.56;10429263;28;20041;-74
2022/05/26 22:53:43;;;;;;;14.30;6.45;;;;;;;13.60;72.24;99806.09;10422566;28;20048;-74
2022/05/26 22:58:47;;;;;;;19.50;6.78;;;;;;;13.63;72.45;99820.06;10414235;28;20105;-74
2022/05/26 23:03:49;;;;;;;17.42;6.22;;;;;;;13.65;72.71;99828.84;10397576;28;20049;-74
2022/05/26 23:08:51;;;;;;;15.05;5.32;;;;;;;13.63;72.97;99827.97;10398055;28;20052;-74
2022/05/26 23:13:54;;;;;;;15.05;5.65;;;;;;;13.63;73.27;99825.34;10397338;28;20422;-75
2022/05/26 23:18:56;;;;;;;19.13;5.95;;;;;;;13.61;73.43;99828.84;10418363;28;20053;-75
2022/05/26 23:23:58;;;;;;;20.83;5.57;;;;;;;13.67;73.67;99858.63;10425724;28;20053;-76
2022/05/26 23:29:00;;;;;;;15.50;5.82;;;;;;;13.67;73.95;99861.25;10425029;28;20053;-75
2022/05/26 23:34:02;;;;;;;16.80;5.38;;;;;;;13.66;74.16;99868.28;10413241;28;20409;-76
2022/05/26 23:39:04;;;;;;;15.48;5.72;;;;;;;13.71;74.29;99897.19;10445440;28;20048;-76
2022/05/26 23:44:06;;;;;;;15.02;5.50;;;;;;;13.74;74.61;99910.28;10439052;28;20053;-76
2022/05/26 23:49:07;;;;;;;17.83;5.25;;;;;;;13.73;74.79;99905.91;10426192;28;20042;-76
2022/05/26 23:54:09;;;;;;;16.77;5.45;;;;;;;13.75;75.01;99931.31;10418217;28;20505;-76
2022/05/26 23:59:11;;;;;;;15.85;6.03;;;;;;;13.76;75.21;99929.56;10434594;28;20059;-76
